KBTL/BTL METAR and TAF weather

Enter ICAO airport designator
Station Type Date Time Source
KBTL METAR 2022/06/26 07:53 UTC NOAA

KBTL 260753Z AUTO 22009KT 10SM OVC038 22/18 A2996 RMK AO2 RAB25E42 SLP139 P0000 T02220178


Station Type Date Time Source
KBTL Decoded METAR 2022/06/26 07:53 UTC NOAA

W.K.KELLOGG REGIONAL AIRPORT, MI, United States (KBTL) 42-18N 085-15W 290M
Jun 26, 2022 - 03:53 AM EDT / 2022.06.26 0753 UTC
Wind: from the SW (220 degrees) at 10 MPH (9 KT):0
Visibility: 10 mile(s):0
Sky conditions: overcast
Precipitation last hour: A trace
Temperature: 72.0 F (22.2 C)
Dew Point: 64.0 F (17.8 C)
Relative Humidity: 76%
Pressure (altimeter): 29.96 in. Hg (1014 hPa)
ob: KBTL 260753Z AUTO 22009KT 10SM OVC038 22/18 A2996 RMK AO2 RAB25E42 SLP139 P0000 T02220178
cycle: 8

Station Type Date Time Source
KBTL TAF 2022/06/26 06:33 UTC NOAA

TAF KBTL 260530Z 2606/2706 19006KT P6SM VCSH OVC040
FM260900 21005KT P6SM VCSH OVC020
FM261100 25006KT P6SM VCSH OVC010
FM261300 27009KT P6SM BKN035
FM270000 29015G23KT P6SM BKN250

Example: see airport list